sensor_id;sensor_type;location;lat;lon;timestamp;pressure;altitude;pressure_sealevel;temperature;humidity
47710;BME280;33473;51.640;5.892;2023-02-20T00:06:54;102500;;;10.2;59.0
47710;BME280;33473;51.640;5.892;2023-02-20T00:20:13;102500;;;10.4;59.0
47710;BME280;33473;51.640;5.892;2023-02-20T00:33:33;102400;;;10.6;59.0
47710;BME280;33473;51.640;5.892;2023-02-20T00:46:53;102400;;;10.7;58.0
47710;BME280;33473;51.640;5.892;2023-02-20T01:00:12;102400;;;10.7;57.0
47710;BME280;33473;51.640;5.892;2023-02-20T01:13:32;102400;;;10.8;57.0
47710;BME280;33473;51.640;5.892;2023-02-20T01:26:52;102400;;;10.8;57.0
47710;BME280;33473;51.640;5.892;2023-02-20T01:40:11;102400;;;10.6;57.0
47710;BME280;33473;51.640;5.892;2023-02-20T01:53:31;102300;;;10.5;58.0
47710;BME280;33473;51.640;5.892;2023-02-20T02:06:51;102300;;;10.3;58.0
47710;BME280;33473;51.640;5.892;2023-02-20T02:20:10;102300;;;10.1;59.0
47710;BME280;33473;51.640;5.892;2023-02-20T02:33:30;102300;;;10.4;58.0
47710;BME280;33473;51.640;5.892;2023-02-20T02:46:50;102300;;;10.3;58.0
47710;BME280;33473;51.640;5.892;2023-02-20T03:00:09;102300;;;10.2;58.0
47710;BME280;33473;51.640;5.892;2023-02-20T03:13:29;102300;;;10.2;59.0
47710;BME280;33473;51.640;5.892;2023-02-20T03:26:49;102200;;;10.4;60.0
47710;BME280;33473;51.640;5.892;2023-02-20T03:40:09;102200;;;10.6;61.0
47710;BME280;33473;51.640;5.892;2023-02-20T03:53:28;102200;;;10.9;60.0
47710;BME280;33473;51.640;5.892;2023-02-20T04:06:48;102200;;;11.1;60.0
47710;BME280;33473;51.640;5.892;2023-02-20T04:20:08;102200;;;10.9;60.0
47710;BME280;33473;51.640;5.892;2023-02-20T04:33:27;102200;;;11.1;60.0
47710;BME280;33473;51.640;5.892;2023-02-20T04:46:47;102200;;;10.9;61.0
47710;BME280;33473;51.640;5.892;2023-02-20T05:00:07;102200;;;10.9;62.0
47710;BME280;33473;51.640;5.892;2023-02-20T05:13:26;102200;;;10.4;63.0
47710;BME280;33473;51.640;5.892;2023-02-20T05:26:46;102200;;;10.5;63.0
47710;BME280;33473;51.640;5.892;2023-02-20T05:40:06;102200;;;10.6;62.0
47710;BME280;33473;51.640;5.892;2023-02-20T05:53:25;102200;;;10.4;63.0
47710;BME280;33473;51.640;5.892;2023-02-20T06:06:45;102200;;;10.5;63.0
47710;BME280;33473;51.640;5.892;2023-02-20T06:20:05;102200;;;10.6;62.0
47710;BME280;33473;51.640;5.892;2023-02-20T06:33:24;102200;;;10.9;61.0
47710;BME280;33473;51.640;5.892;2023-02-20T06:46:44;102200;;;10.9;62.0
47710;BME280;33473;51.640;5.892;2023-02-20T07:00:04;102200;;;10.2;63.0
47710;BME280;33473;51.640;5.892;2023-02-20T07:13:23;102200;;;10.8;61.0
47710;BME280;33473;51.640;5.892;2023-02-20T07:26:43;102200;;;10.5;62.0
47710;BME280;33473;51.640;5.892;2023-02-20T07:40:03;102200;;;10.8;61.0
47710;BME280;33473;51.640;5.892;2023-02-20T07:53:22;102200;;;10.7;62.0
47710;BME280;33473;51.640;5.892;2023-02-20T08:06:42;102200;;;10.8;62.0
47710;BME280;33473;51.640;5.892;2023-02-20T08:20:02;102200;;;11.0;61.0
47710;BME280;33473;51.640;5.892;2023-02-20T08:33:21;102200;;;10.9;61.0
47710;BME280;33473;51.640;5.892;2023-02-20T08:46:41;102200;;;11.2;61.0
47710;BME280;33473;51.640;5.892;2023-02-20T09:00:01;102200;;;11.5;61.0
47710;BME280;33473;51.640;5.892;2023-02-20T09:13:20;102200;;;11.3;61.0
47710;BME280;33473;51.640;5.892;2023-02-20T09:26:40;102200;;;11.3;61.0
47710;BME280;33473;51.640;5.892;2023-02-20T09:40:00;102200;;;11.8;61.0
47710;BME280;33473;51.640;5.892;2023-02-20T09:53:20;102200;;;11.4;62.0
47710;BME280;33473;51.640;5.892;2023-02-20T10:06:39;102200;;;11.6;61.0
47710;BME280;33473;51.640;5.892;2023-02-20T10:19:59;102200;;;12.1;60.0
47710;BME280;33473;51.640;5.892;2023-02-20T10:33:19;102200;;;12.2;60.0
47710;BME280;33473;51.640;5.892;2023-02-20T10:46:38;102200;;;11.9;61.0
47710;BME280;33473;51.640;5.892;2023-02-20T10:59:58;102200;;;11.7;62.0
47710;BME280;33473;51.640;5.892;2023-02-20T11:13:18;102200;;;11.9;62.0
47710;BME280;33473;51.640;5.892;2023-02-20T11:26:37;102200;;;11.8;63.0
47710;BME280;33473;51.640;5.892;2023-02-20T11:39:57;102200;;;11.9;63.0
47710;BME280;33473;51.640;5.892;2023-02-20T11:53:17;102200;;;12.5;61.0
47710;BME280;33473;51.640;5.892;2023-02-20T12:06:36;102200;;;11.8;64.0
47710;BME280;33473;51.640;5.892;2023-02-20T12:33:16;102100;;;12.1;63.0
47710;BME280;33473;51.640;5.892;2023-02-20T12:46:35;102100;;;12.2;63.0
47710;BME280;33473;51.640;5.892;2023-02-20T12:59:55;102100;;;12.8;61.0
47710;BME280;33473;51.640;5.892;2023-02-20T13:13:15;102100;;;12.6;62.0
47710;BME280;33473;51.640;5.892;2023-02-20T13:26:34;102100;;;12.7;62.0
47710;BME280;33473;51.640;5.892;2023-02-20T13:39:54;102100;;;12.3;62.0
47710;BME280;33473;51.640;5.892;2023-02-20T13:53:14;102100;;;12.2;63.0
47710;BME280;33473;51.640;5.892;2023-02-20T14:06:33;102100;;;12.3;63.0
47710;BME280;33473;51.640;5.892;2023-02-20T14:19:53;102000;;;12.5;62.0
47710;BME280;33473;51.640;5.892;2023-02-20T14:33:13;102000;;;12.5;62.0
47710;BME280;33473;51.640;5.892;2023-02-20T14:46:32;102000;;;12.9;61.0
47710;BME280;33473;51.640;5.892;2023-02-20T14:59:52;102000;;;12.1;63.0
47710;BME280;33473;51.640;5.892;2023-02-20T15:13:12;102000;;;12.4;62.0
47710;BME280;33473;51.640;5.892;2023-02-20T15:26:31;102000;;;12.6;62.0
47710;BME280;33473;51.640;5.892;2023-02-20T15:39:51;102000;;;12.5;62.0
47710;BME280;33473;51.640;5.892;2023-02-20T15:53:11;102000;;;12.1;63.0
47710;BME280;33473;51.640;5.892;2023-02-20T16:06:31;102000;;;12.5;62.0
47710;BME280;33473;51.640;5.892;2023-02-20T16:19:50;102000;;;12.4;63.0
47710;BME280;33473;51.640;5.892;2023-02-20T16:33:10;102000;;;12.7;61.0
47710;BME280;33473;51.640;5.892;2023-02-20T16:46:30;102000;;;12.8;61.0
47710;BME280;33473;51.640;5.892;2023-02-20T16:59:49;102000;;;12.6;62.0
47710;BME280;33473;51.640;5.892;2023-02-20T17:13:09;102000;;;12.8;61.0
47710;BME280;33473;51.640;5.892;2023-02-20T17:26:29;102000;;;13.3;59.0
47710;BME280;33473;51.640;5.892;2023-02-20T17:39:48;102000;;;13.5;59.0
47710;BME280;33473;51.640;5.892;2023-02-20T17:53:08;102000;;;13.2;60.0
47710;BME280;33473;51.640;5.892;2023-02-20T18:06:28;102000;;;12.8;61.0
47710;BME280;33473;51.640;5.892;2023-02-20T18:19:47;102000;;;13.0;60.0
47710;BME280;33473;51.640;5.892;2023-02-20T18:33:07;102000;;;13.1;60.0
47710;BME280;33473;51.640;5.892;2023-02-20T18:46:27;102000;;;13.0;60.0
47710;BME280;33473;51.640;5.892;2023-02-20T18:59:47;102000;;;13.4;60.0
47710;BME280;33473;51.640;5.892;2023-02-20T19:13:06;102000;;;13.5;59.0
47710;BME280;33473;51.640;5.892;2023-02-20T19:26:26;102000;;;13.2;60.0
47710;BME280;33473;51.640;5.892;2023-02-20T19:39:46;102000;;;12.9;61.0
47710;BME280;33473;51.640;5.892;2023-02-20T19:53:05;102000;;;12.9;61.0
47710;BME280;33473;51.640;5.892;2023-02-20T20:06:25;102000;;;12.9;61.0
47710;BME280;33473;51.640;5.892;2023-02-20T20:19:45;102000;;;13.0;61.0
47710;BME280;33473;51.640;5.892;2023-02-20T20:33:04;102000;;;12.7;62.0
47710;BME280;33473;51.640;5.892;2023-02-20T20:46:24;102000;;;12.7;62.0
47710;BME280;33473;51.640;5.892;2023-02-20T20:59:44;102000;;;13.1;61.0
47710;BME280;33473;51.640;5.892;2023-02-20T21:13:03;102000;;;12.8;62.0
47710;BME280;33473;51.640;5.892;2023-02-20T21:26:23;101900;;;12.7;62.0
47710;BME280;33473;51.640;5.892;2023-02-20T21:39:43;102000;;;12.7;62.0
47710;BME280;33473;51.640;5.892;2023-02-20T21:53:02;102000;;;13.0;61.0
47710;BME280;33473;51.640;5.892;2023-02-20T22:06:22;101900;;;12.4;63.0
47710;BME280;33473;51.640;5.892;2023-02-20T22:19:42;101900;;;12.6;62.0
47710;BME280;33473;51.640;5.892;2023-02-20T22:33:01;101900;;;13.3;60.0
47710;BME280;33473;51.640;5.892;2023-02-20T22:46:21;101900;;;13.1;61.0
47710;BME280;33473;51.640;5.892;2023-02-20T22:59:41;102000;;;12.8;62.0
47710;BME280;33473;51.640;5.892;2023-02-20T23:13:00;101900;;;12.5;63.0
47710;BME280;33473;51.640;5.892;2023-02-20T23:26:20;102000;;;13.2;61.0
47710;BME280;33473;51.640;5.892;2023-02-20T23:39:40;101900;;;12.8;61.0
47710;BME280;33473;51.640;5.892;2023-02-20T23:52:59;102000;;;13.1;62.0
